createdAt,value
2023-01-02T00:00:57.075Z,7.86
2023-01-02T00:03:43.621Z,7.88
2023-01-02T00:06:34.974Z,8.03
2023-01-02T00:09:21.441Z,8.00
2023-01-02T00:12:08.076Z,7.93
2023-01-02T00:14:54.714Z,7.83
2023-01-02T00:17:41.565Z,7.68
2023-01-02T00:20:28.115Z,7.79
2023-01-02T00:23:15.383Z,7.80
2023-01-02T00:26:01.845Z,7.68
2023-01-02T00:28:48.445Z,7.86
2023-01-02T00:31:35.026Z,7.89
2023-01-02T00:34:21.806Z,7.98
2023-01-02T00:37:08.118Z,7.90
2023-01-02T00:39:54.382Z,7.79
2023-01-02T00:42:41.814Z,7.82
2023-01-02T00:45:28.715Z,7.61
2023-01-02T00:48:15.111Z,7.52
2023-01-02T00:51:01.899Z,7.46
2023-01-02T00:53:48.375Z,7.47
2023-01-02T00:56:34.995Z,7.50
2023-01-02T00:59:21.838Z,7.64
2023-01-02T01:02:08.575Z,7.59
2023-01-02T01:04:55.246Z,7.74
2023-01-02T01:07:41.478Z,7.89
2023-01-02T01:10:28.279Z,7.82
2023-01-02T01:13:14.725Z,7.86
2023-01-02T01:16:13.788Z,7.87
2023-01-02T01:19:00.443Z,7.98
2023-01-02T01:21:47.170Z,8.04
2023-01-02T01:24:33.808Z,8.06
2023-01-02T01:27:20.415Z,8.20
2023-01-02T01:30:07.840Z,8.21
2023-01-02T01:32:54.402Z,8.13
2023-01-02T01:35:40.762Z,8.18
2023-01-02T01:38:27.625Z,8.15
2023-01-02T01:41:15.928Z,8.30
2023-01-02T01:44:03.251Z,8.24
2023-01-02T01:46:49.509Z,8.24
2023-01-02T01:49:36.206Z,8.31
2023-01-02T01:52:27.464Z,8.32
2023-01-02T01:55:36.853Z,8.49
2023-01-02T01:58:28.865Z,8.59
2023-01-02T02:01:17.784Z,8.66
2023-01-02T02:04:04.356Z,8.87
2023-01-02T02:06:51.704Z,9.17
2023-01-02T02:09:47.325Z,9.54
2023-01-02T02:12:34.621Z,9.34
2023-01-02T02:15:31.125Z,9.52
2023-01-02T02:18:23.533Z,9.64
2023-01-02T02:21:42.417Z,9.54
2023-01-02T02:25:08.082Z,9.62
2023-01-02T02:28:06.925Z,9.75
2023-01-02T02:30:56.979Z,9.79
2023-01-02T02:34:01.303Z,9.92
2023-01-02T02:37:12.297Z,10.05
2023-01-02T02:40:15.183Z,10.02
2023-01-02T02:43:16.547Z,10.03
2023-01-02T02:46:24.024Z,10.02
2023-01-02T02:49:42.135Z,9.84
2023-01-02T02:52:36.204Z,9.89
2023-01-02T02:55:39.358Z,9.70
2023-01-02T02:58:28.659Z,9.82
2023-01-02T03:01:17.769Z,9.68
2023-01-02T03:04:22.953Z,9.70
2023-01-02T03:07:26.653Z,9.60
2023-01-02T03:10:18.886Z,9.73
2023-01-02T03:13:26.479Z,9.64
2023-01-02T03:16:18.954Z,9.70
2023-01-02T03:19:17.928Z,9.74
2023-01-02T03:22:18.987Z,9.73
2023-01-02T03:25:07.115Z,9.80
2023-01-02T03:27:58.211Z,9.82
2023-01-02T03:30:49.424Z,9.95
2023-01-02T03:33:39.676Z,10.09
2023-01-02T03:36:30.477Z,10.19
2023-01-02T03:39:20.637Z,10.50
2023-01-02T03:42:12.780Z,10.54
2023-01-02T03:45:23.152Z,10.50
2023-01-02T03:48:12.708Z,10.39
2023-01-02T03:51:02.091Z,10.33
2023-01-02T03:53:50.911Z,10.20
2023-01-02T03:57:02.707Z,10.25
2023-01-02T04:00:22.232Z,10.38
2023-01-02T04:03:20.865Z,10.40
2023-01-02T04:06:14.827Z,10.36
2023-01-02T04:09:09.485Z,10.42
2023-01-02T04:12:07.512Z,10.29
2023-01-02T04:14:59.770Z,10.25
2023-01-02T04:17:54.542Z,10.19
2023-01-02T04:20:45.533Z,10.23
2023-01-02T04:23:37.304Z,10.21
2023-01-02T04:26:36.693Z,9.78
2023-01-02T04:29:23.457Z,10.03
2023-01-02T04:32:24.641Z,10.07
2023-01-02T04:35:16.334Z,10.15
2023-01-02T04:38:11.972Z,10.15
2023-01-02T04:40:58.304Z,10.33
2023-01-02T04:43:44.966Z,10.24
2023-01-02T04:46:32.232Z,10.10
2023-01-02T04:49:18.794Z,10.15
2023-01-02T04:52:05.480Z,10.09
2023-01-02T04:54:52.002Z,10.23
2023-01-02T04:57:38.691Z,10.26
2023-01-02T05:00:25.151Z,10.20
2023-01-02T05:03:11.826Z,10.39
2023-01-02T05:06:02.079Z,10.38
2023-01-02T05:08:48.707Z,10.49
2023-01-02T05:11:35.463Z,10.41
2023-01-02T05:14:22.176Z,10.48
2023-01-02T05:17:08.951Z,10.51
2023-01-02T05:19:55.289Z,10.60
2023-01-02T05:23:02.058Z,10.54
2023-01-02T05:25:48.627Z,10.49
2023-01-02T05:28:38.538Z,10.62
2023-01-02T05:31:26.499Z,10.48
2023-01-02T05:34:14.833Z,10.29
2023-01-02T05:37:01.128Z,10.12
2023-01-02T05:39:47.708Z,9.93
2023-01-02T05:42:34.143Z,9.79
2023-01-02T05:45:23.431Z,9.68
2023-01-02T05:48:10.126Z,9.59
2023-01-02T05:51:00.823Z,9.64
2023-01-02T05:53:47.750Z,9.54
2023-01-02T05:56:34.063Z,9.40
2023-01-02T05:59:20.635Z,9.39
2023-01-02T06:02:07.486Z,9.30
2023-01-02T06:04:53.841Z,9.32
2023-01-02T06:07:40.483Z,9.34
2023-01-02T06:10:26.853Z,9.37
2023-01-02T06:13:13.053Z,9.32
2023-01-02T06:16:01.507Z,9.51
2023-01-02T06:18:48.443Z,9.53
2023-01-02T06:21:34.574Z,9.35
2023-01-02T06:24:21.178Z,9.34
2023-01-02T06:27:07.441Z,9.15
2023-01-02T06:29:54.076Z,8.97
2023-01-02T06:32:40.900Z,8.82
2023-01-02T06:35:27.653Z,8.60
2023-01-02T06:38:14.142Z,8.52
2023-01-02T06:41:02.354Z,8.36
2023-01-02T06:43:51.111Z,8.32
2023-01-02T06:46:37.549Z,8.17
2023-01-02T06:49:24.234Z,8.09
2023-01-02T06:52:10.733Z,8.18
2023-01-02T06:54:57.276Z,8.08
2023-01-02T06:57:44.071Z,8.06
2023-01-02T07:00:30.640Z,7.94
2023-01-02T07:03:18.265Z,7.89
2023-01-02T07:06:07.786Z,7.91
2023-01-02T07:08:54.377Z,7.95
2023-01-02T07:11:40.735Z,7.87
2023-01-02T07:14:27.340Z,7.79
2023-01-02T07:17:13.760Z,7.75
2023-01-02T07:20:02.220Z,7.69
2023-01-02T07:22:51.770Z,7.77
2023-01-02T07:25:44.087Z,7.71
2023-01-02T07:28:31.510Z,7.79
2023-01-02T07:31:19.430Z,7.81
2023-01-02T07:34:05.975Z,7.89
2023-01-02T07:36:52.534Z,8.26
2023-01-02T07:39:39.123Z,8.45
2023-01-02T07:42:25.353Z,8.33
2023-01-02T07:45:11.884Z,8.32
2023-01-02T07:47:58.680Z,8.32
2023-01-02T07:50:46.443Z,8.36
2023-01-02T07:53:33.626Z,8.31
2023-01-02T07:56:20.101Z,8.32
2023-01-02T07:59:06.730Z,8.38
2023-01-02T08:01:53.148Z,8.41
2023-01-02T08:04:39.765Z,8.54
2023-01-02T08:07:26.459Z,8.69
2023-01-02T08:10:13.401Z,8.80
2023-01-02T08:13:00.105Z,8.86
2023-01-02T08:15:46.791Z,9.00
2023-01-02T08:18:33.524Z,9.01
2023-01-02T08:21:20.092Z,9.03
2023-01-02T08:24:08.183Z,9.06
2023-01-02T08:26:54.296Z,9.15
2023-01-02T08:29:41.837Z,9.22
2023-01-02T08:32:28.381Z,9.23
2023-01-02T08:35:15.341Z,9.26
2023-01-02T08:38:01.636Z,9.37
2023-01-02T08:40:47.952Z,9.42
2023-01-02T08:43:36.065Z,9.56
2023-01-02T08:46:22.453Z,9.57
2023-01-02T08:49:09.380Z,9.69
2023-01-02T08:51:55.954Z,9.53
2023-01-02T08:54:42.502Z,9.50
2023-01-02T08:57:29.329Z,9.58
2023-01-02T09:00:20.824Z,9.55
2023-01-02T09:03:09.055Z,9.45
2023-01-02T09:05:55.728Z,9.52
2023-01-02T09:08:42.540Z,9.66
2023-01-02T09:11:37.715Z,9.80
2023-01-02T09:14:24.601Z,9.92
2023-01-02T09:17:12.268Z,10.20
2023-01-02T09:19:59.066Z,10.49
2023-01-02T09:22:45.763Z,10.87
2023-01-02T09:25:32.441Z,11.04
2023-01-02T09:28:21.258Z,11.25
2023-01-02T09:31:13.149Z,11.37
2023-01-02T09:34:04.019Z,11.63
2023-01-02T09:36:53.960Z,11.57
2023-01-02T09:39:43.787Z,11.67
2023-01-02T09:42:32.388Z,11.55
2023-01-02T09:45:23.454Z,11.44
2023-01-02T09:48:16.847Z,11.25
2023-01-02T09:51:07.903Z,11.11
2023-01-02T09:53:55.032Z,10.88
2023-01-02T09:56:47.680Z,10.78
2023-01-02T09:59:41.160Z,10.70
2023-01-02T10:03:00.400Z,10.80
2023-01-02T10:06:12.147Z,10.80
2023-01-02T10:09:12.400Z,11.03
2023-01-02T10:12:29.384Z,10.95
2023-01-02T10:15:27.638Z,11.07
2023-01-02T10:18:28.902Z,11.27
2023-01-02T10:21:24.755Z,11.24
2023-01-02T10:24:16.352Z,11.49
2023-01-02T10:27:05.749Z,11.55
2023-01-02T10:30:06.420Z,11.65
2023-01-02T10:33:02.561Z,11.84
2023-01-02T10:36:00.067Z,12.15
2023-01-02T10:38:47.452Z,12.21
2023-01-02T10:41:35.057Z,12.40
2023-01-02T10:44:37.495Z,12.69
2023-01-02T10:47:36.635Z,12.96
2023-01-02T10:50:29.552Z,13.05
2023-01-02T10:53:20.995Z,13.24
2023-01-02T10:56:16.178Z,13.36
2023-01-02T10:59:03.869Z,13.52
2023-01-02T11:01:57.066Z,13.60
2023-01-02T11:04:43.596Z,13.52
2023-01-02T11:07:34.029Z,13.48
2023-01-02T11:10:29.334Z,13.42
2023-01-02T11:13:19.881Z,13.41
2023-01-02T11:16:07.404Z,13.26
2023-01-02T11:18:56.915Z,13.21
2023-01-02T11:21:43.973Z,13.41
2023-01-02T11:24:32.680Z,13.59
2023-01-02T11:27:19.162Z,13.73
2023-01-02T11:30:08.864Z,13.94
2023-01-02T11:33:24.445Z,13.96
2023-01-02T11:36:10.786Z,14.08
2023-01-02T11:38:57.171Z,14.10
2023-01-02T11:42:32.425Z,14.33
2023-01-02T11:45:25.227Z,14.51
2023-01-02T11:48:21.222Z,14.65
2023-01-02T11:51:17.759Z,14.68
2023-01-02T11:54:13.702Z,14.65
2023-01-02T11:57:00.983Z,14.73
2023-01-02T11:59:51.495Z,14.72
2023-01-02T12:02:42.073Z,14.80
2023-01-02T12:05:51.484Z,14.93
2023-01-02T12:08:56.869Z,15.13
2023-01-02T12:12:11.539Z,15.31
2023-01-02T12:15:07.147Z,15.37
2023-01-02T12:18:18.823Z,15.40
2023-01-02T12:21:36.799Z,15.39
2023-01-02T12:24:52.223Z,15.51
2023-01-02T12:27:42.078Z,15.54
2023-01-02T12:30:32.952Z,15.56
2023-01-02T12:33:57.868Z,15.56
2023-01-02T12:36:48.333Z,15.57
2023-01-02T12:39:50.087Z,15.50
2023-01-02T12:42:39.365Z,15.75
2023-01-02T12:45:32.467Z,15.88
2023-01-02T12:48:50.008Z,15.99
2023-01-02T12:51:59.476Z,16.03
2023-01-02T12:54:58.047Z,15.97
2023-01-02T12:57:58.633Z,15.82
2023-01-02T13:00:57.836Z,15.78
2023-01-02T13:04:05.282Z,15.78
2023-01-02T13:07:02.115Z,15.59
2023-01-02T13:09:50.848Z,15.69
2023-01-02T13:12:37.791Z,15.89
2023-01-02T13:15:58.064Z,15.94
2023-01-02T13:19:02.835Z,15.98
2023-01-02T13:22:03.213Z,16.01
2023-01-02T13:24:50.872Z,15.75
2023-01-02T13:27:37.201Z,15.73
2023-01-02T13:30:42.083Z,15.69
2023-01-02T13:33:28.505Z,15.56
2023-01-02T13:36:28.599Z,15.42
2023-01-02T13:39:24.178Z,15.41
2023-01-02T13:42:50.205Z,15.29
2023-01-02T13:45:44.757Z,15.21
2023-01-02T13:48:44.151Z,15.17
2023-01-02T13:51:34.834Z,15.04
2023-01-02T13:54:37.533Z,14.86
2023-01-02T13:57:27.056Z,14.84
2023-01-02T14:00:16.554Z,14.76
2023-01-02T14:03:36.264Z,14.66
2023-01-02T14:06:37.466Z,14.62
2023-01-02T14:09:25.001Z,14.62
2023-01-02T14:12:13.201Z,14.61
2023-01-02T14:14:59.549Z,14.58
2023-01-02T14:18:05.764Z,14.56
2023-01-02T14:20:55.921Z,14.46
2023-01-02T14:24:17.404Z,14.41
2023-01-02T14:26:58.387Z,14.39
2023-01-02T14:29:54.032Z,14.31
2023-01-02T14:32:44.379Z,14.23
2023-01-02T14:35:48.937Z,14.20
2023-01-02T14:38:42.802Z,14.07
2023-01-02T14:42:10.008Z,13.98
2023-01-02T14:45:02.862Z,13.94
2023-01-02T14:48:13.117Z,13.96
2023-01-02T14:51:06.727Z,13.91
2023-01-02T14:53:58.046Z,13.74
2023-01-02T14:57:02.956Z,13.69
2023-01-02T14:59:52.571Z,13.74
2023-01-02T15:02:44.956Z,13.65
2023-01-02T15:05:48.052Z,13.48
2023-01-02T15:08:39.421Z,13.46
2023-01-02T15:11:45.767Z,13.29
2023-01-02T15:14:32.114Z,13.21
2023-01-02T15:17:22.118Z,13.06
2023-01-02T15:20:09.491Z,12.92
2023-01-02T15:22:56.721Z,12.82
2023-01-02T15:25:43.071Z,12.78
2023-01-02T15:28:32.084Z,12.64
2023-01-02T15:31:18.757Z,12.61
2023-01-02T15:34:05.468Z,12.36
2023-01-02T15:36:52.876Z,12.16
2023-01-02T15:39:42.748Z,12.29
2023-01-02T15:42:47.926Z,12.39
2023-01-02T15:45:35.593Z,12.36
2023-01-02T15:48:27.633Z,12.65
2023-01-02T15:51:16.567Z,12.71
2023-01-02T15:54:03.597Z,12.66
2023-01-02T15:56:50.110Z,12.68
2023-01-02T15:59:38.781Z,12.64
2023-01-02T16:02:44.382Z,12.63
2023-01-02T16:05:45.718Z,12.60
2023-01-02T16:08:37.955Z,12.64
2023-01-02T16:11:25.672Z,12.65
2023-01-02T16:14:31.513Z,12.65
2023-01-02T16:17:36.169Z,12.69
2023-01-02T16:20:25.303Z,12.56
2023-01-02T16:23:19.415Z,12.40
2023-01-02T16:26:09.253Z,12.42
2023-01-02T16:28:55.946Z,12.35
2023-01-02T16:31:57.613Z,12.20
2023-01-02T16:34:45.857Z,12.11
2023-01-02T16:37:34.972Z,12.01
2023-01-02T16:41:01.458Z,12.01
2023-01-02T16:43:34.350Z,12.07
2023-01-02T16:46:25.444Z,12.08
2023-01-02T16:49:16.255Z,12.09
2023-01-02T16:52:04.663Z,12.16
2023-01-02T16:54:54.289Z,12.17
2023-01-02T16:57:41.199Z,12.05
2023-01-02T17:00:28.062Z,12.08
2023-01-02T17:03:26.007Z,12.16
2023-01-02T17:06:15.180Z,12.14
2023-01-02T17:09:01.664Z,12.14
2023-01-02T17:12:01.553Z,12.20
2023-01-02T17:14:48.356Z,12.19
2023-01-02T17:17:36.152Z,11.99
2023-01-02T17:20:23.185Z,12.14
2023-01-02T17:23:09.700Z,11.81
2023-01-02T17:25:56.248Z,12.15
2023-01-02T17:28:42.477Z,11.90
2023-01-02T17:31:29.590Z,11.55
2023-01-02T17:34:15.886Z,11.40
2023-01-02T17:37:02.127Z,11.16
2023-01-02T17:39:48.614Z,11.02
2023-01-02T17:42:35.580Z,10.83
2023-01-02T17:45:24.797Z,10.83
2023-01-02T17:48:14.190Z,10.70
2023-01-02T17:51:01.888Z,10.66
2023-01-02T17:53:55.823Z,10.57
2023-01-02T17:56:42.849Z,10.50
2023-01-02T17:59:29.633Z,10.33
2023-01-02T18:02:18.476Z,10.23
2023-01-02T18:05:05.432Z,10.11
2023-01-02T18:07:51.687Z,10.16
2023-01-02T18:10:38.878Z,10.19
2023-01-02T18:13:28.358Z,10.12
2023-01-02T18:16:21.599Z,10.02
2023-01-02T18:19:23.313Z,9.87
2023-01-02T18:22:15.490Z,9.78
2023-01-02T18:25:27.237Z,9.79
2023-01-02T18:28:41.641Z,9.77
2023-01-02T18:31:38.360Z,9.71
2023-01-02T18:34:47.588Z,9.60
2023-01-02T18:37:34.807Z,9.55
2023-01-02T18:40:28.815Z,9.40
2023-01-02T18:43:18.722Z,9.31
2023-01-02T18:46:18.869Z,9.14
2023-01-02T18:49:25.050Z,9.04
2023-01-02T18:52:11.367Z,8.98
2023-01-02T18:55:01.660Z,8.92
2023-01-02T18:57:57.526Z,9.00
2023-01-02T19:00:44.951Z,8.97
2023-01-02T19:03:32.815Z,8.99
2023-01-02T19:06:22.782Z,9.02
2023-01-02T19:09:23.608Z,9.00
2023-01-02T19:12:31.451Z,9.00
2023-01-02T19:15:47.219Z,9.01
2023-01-02T19:18:43.080Z,9.04
2023-01-02T19:21:31.262Z,8.98
2023-01-02T19:24:22.120Z,9.03
2023-01-02T19:27:36.014Z,9.07
2023-01-02T19:30:38.044Z,9.01
2023-01-02T19:33:51.504Z,8.91
2023-01-02T19:36:41.863Z,8.86
2023-01-02T19:39:38.841Z,8.90
2023-01-02T19:42:28.970Z,8.86
2023-01-02T19:45:27.919Z,8.98
2023-01-02T19:48:18.097Z,8.97
2023-01-02T19:51:05.504Z,8.99
2023-01-02T19:53:51.963Z,8.92
2023-01-02T19:56:38.499Z,9.03
2023-01-02T19:59:24.799Z,9.01
2023-01-02T20:02:13.488Z,9.00
2023-01-02T20:05:01.778Z,9.01
2023-01-02T20:07:50.264Z,9.03
2023-01-02T20:10:36.916Z,9.09
2023-01-02T20:13:23.494Z,8.99
2023-01-02T20:16:10.218Z,9.04
2023-01-02T20:18:57.528Z,9.08
2023-01-02T20:21:44.168Z,9.10
2023-01-02T20:24:30.947Z,9.19
2023-01-02T20:27:19.788Z,9.22
2023-01-02T20:30:09.530Z,9.14
2023-01-02T20:32:55.926Z,9.22
2023-01-02T20:35:42.449Z,9.24
2023-01-02T20:38:30.468Z,9.15
2023-01-02T20:41:17.154Z,9.15
2023-01-02T20:44:04.139Z,9.21
2023-01-02T20:46:50.553Z,9.22
2023-01-02T20:49:38.570Z,9.23
2023-01-02T20:52:25.150Z,9.15
2023-01-02T20:55:11.966Z,9.10
2023-01-02T20:57:58.567Z,8.99
2023-01-02T21:00:45.117Z,8.97
2023-01-02T21:03:31.408Z,8.98
2023-01-02T21:06:18.269Z,9.01
2023-01-02T21:09:05.633Z,9.02
2023-01-02T21:11:53.196Z,8.86
2023-01-02T21:14:39.847Z,8.95
2023-01-02T21:17:27.033Z,8.99
2023-01-02T21:20:13.722Z,9.02
2023-01-02T21:23:00.757Z,8.85
2023-01-02T21:25:48.156Z,8.94
2023-01-02T21:28:35.108Z,8.95
2023-01-02T21:31:21.992Z,8.90
2023-01-02T21:34:08.736Z,8.79
2023-01-02T21:36:55.469Z,8.93
2023-01-02T21:39:42.162Z,8.90
2023-01-02T21:42:28.902Z,8.92
2023-01-02T21:45:24.089Z,8.93
2023-01-02T21:48:10.660Z,8.84
2023-01-02T21:50:56.965Z,8.83
2023-01-02T21:53:43.603Z,8.87
2023-01-02T21:56:32.245Z,8.75
2023-01-02T21:59:18.794Z,8.71
2023-01-02T22:02:06.688Z,8.78
2023-01-02T22:04:53.546Z,8.77
2023-01-02T22:07:42.579Z,8.74
2023-01-02T22:10:29.207Z,8.74
2023-01-02T22:13:16.705Z,8.66
2023-01-02T22:16:03.042Z,8.67
2023-01-02T22:18:50.804Z,8.68
2023-01-02T22:21:40.070Z,8.61
2023-01-02T22:24:27.499Z,8.63
2023-01-02T22:27:17.049Z,8.61
2023-01-02T22:30:24.753Z,8.66
2023-01-02T22:33:12.202Z,8.49
2023-01-02T22:35:58.934Z,8.50
2023-01-02T22:39:17.452Z,8.57
2023-01-02T22:42:41.329Z,8.57
2023-01-02T22:45:27.637Z,8.60
2023-01-02T22:48:19.210Z,8.51
2023-01-02T22:51:08.884Z,8.55
2023-01-02T22:53:56.344Z,8.61
2023-01-02T22:56:43.998Z,8.54
2023-01-02T22:59:30.333Z,8.48
2023-01-02T23:02:20.904Z,8.37
2023-01-02T23:05:23.293Z,8.35
2023-01-02T23:08:09.901Z,8.17
2023-01-02T23:10:56.332Z,8.36
2023-01-02T23:13:43.673Z,8.32
2023-01-02T23:16:51.375Z,8.12
2023-01-02T23:19:37.991Z,7.91
2023-01-02T23:22:24.721Z,7.84
2023-01-02T23:25:12.075Z,7.70
2023-01-02T23:27:59.179Z,7.61
2023-01-02T23:30:45.478Z,7.57
2023-01-02T23:33:32.210Z,7.75
2023-01-02T23:36:18.790Z,7.73
2023-01-02T23:39:08.565Z,7.77
2023-01-02T23:41:55.443Z,7.84
2023-01-02T23:44:44.094Z,7.68
2023-01-02T23:47:30.661Z,7.57
2023-01-02T23:50:17.339Z,7.58
2023-01-02T23:53:04.055Z,7.48
2023-01-02T23:55:50.415Z,7.64
2023-01-02T23:58:36.929Z,7.63
